sensor_id;sensor_type;location;lat;lon;timestamp;P1;durP1;ratioP1;P2;durP2;ratioP2
29916;SDS011;16786;49.466;11.068;2023-03-14T00:01:49;3.22;;;1.10;;
29916;SDS011;16786;49.466;11.068;2023-03-14T00:04:16;2.78;;;1.13;;
29916;SDS011;16786;49.466;11.068;2023-03-14T00:06:43;2.47;;;1.20;;
29916;SDS011;16786;49.466;11.068;2023-03-14T00:09:13;3.08;;;1.33;;
29916;SDS011;16786;49.466;11.068;2023-03-14T00:11:40;2.88;;;1.27;;
29916;SDS011;16786;49.466;11.068;2023-03-14T00:14:08;4.03;;;1.42;;
29916;SDS011;16786;49.466;11.068;2023-03-14T00:16:35;3.35;;;1.27;;
29916;SDS011;16786;49.466;11.068;2023-03-14T00:19:02;3.88;;;1.35;;
29916;SDS011;16786;49.466;11.068;2023-03-14T00:21:29;7.18;;;1.35;;
29916;SDS011;16786;49.466;11.068;2023-03-14T00:23:57;4.53;;;1.40;;
29916;SDS011;16786;49.466;11.068;2023-03-14T00:26:24;6.18;;;1.30;;
29916;SDS011;16786;49.466;11.068;2023-03-14T00:28:51;6.63;;;1.80;;
29916;SDS011;16786;49.466;11.068;2023-03-14T00:31:19;3.55;;;1.02;;
29916;SDS011;16786;49.466;11.068;2023-03-14T00:33:47;4.53;;;1.20;;
29916;SDS011;16786;49.466;11.068;2023-03-14T00:36:15;4.15;;;1.20;;
29916;SDS011;16786;49.466;11.068;2023-03-14T00:38:44;2.35;;;1.20;;
29916;SDS011;16786;49.466;11.068;2023-03-14T00:41:15;4.35;;;1.20;;
29916;SDS011;16786;49.466;11.068;2023-03-14T00:43:46;2.42;;;1.20;;
29916;SDS011;16786;49.466;11.068;2023-03-14T00:46:14;3.05;;;0.82;;
29916;SDS011;16786;49.466;11.068;2023-03-14T00:48:43;2.22;;;0.93;;
29916;SDS011;16786;49.466;11.068;2023-03-14T00:51:12;4.00;;;1.20;;
29916;SDS011;16786;49.466;11.068;2023-03-14T00:53:42;1.55;;;0.85;;
29916;SDS011;16786;49.466;11.068;2023-03-14T00:56:11;1.77;;;0.80;;
29916;SDS011;16786;49.466;11.068;2023-03-14T00:58:39;2.55;;;0.80;;
29916;SDS011;16786;49.466;11.068;2023-03-14T01:01:07;1.50;;;0.80;;
29916;SDS011;16786;49.466;11.068;2023-03-14T01:03:36;1.85;;;0.80;;
29916;SDS011;16786;49.466;11.068;2023-03-14T01:06:07;0.75;;;0.60;;
29916;SDS011;16786;49.466;11.068;2023-03-14T01:08:36;1.63;;;0.70;;
29916;SDS011;16786;49.466;11.068;2023-03-14T01:11:10;1.33;;;0.77;;
29916;SDS011;16786;49.466;11.068;2023-03-14T01:13:41;1.15;;;0.60;;
29916;SDS011;16786;49.466;11.068;2023-03-14T01:16:09;1.25;;;0.70;;
29916;SDS011;16786;49.466;11.068;2023-03-14T01:18:38;1.90;;;0.77;;
29916;SDS011;16786;49.466;11.068;2023-03-14T01:21:15;0.65;;;0.60;;
29916;SDS011;16786;49.466;11.068;2023-03-14T01:23:44;2.92;;;0.65;;
29916;SDS011;16786;49.466;11.068;2023-03-14T01:26:14;1.15;;;0.70;;
29916;SDS011;16786;49.466;11.068;2023-03-14T01:28:43;2.63;;;0.60;;
29916;SDS011;16786;49.466;11.068;2023-03-14T01:31:10;0.98;;;0.60;;
29916;SDS011;16786;49.466;11.068;2023-03-14T01:33:38;1.08;;;0.60;;
29916;SDS011;16786;49.466;11.068;2023-03-14T01:36:08;0.50;;;0.50;;
29916;SDS011;16786;49.466;11.068;2023-03-14T01:38:37;1.65;;;0.50;;
29916;SDS011;16786;49.466;11.068;2023-03-14T01:41:12;1.30;;;0.55;;
29916;SDS011;16786;49.466;11.068;2023-03-14T01:43:43;1.60;;;0.50;;
29916;SDS011;16786;49.466;11.068;2023-03-14T01:46:22;1.27;;;0.63;;
29916;SDS011;16786;49.466;11.068;2023-03-14T01:59:43;0.82;;;0.50;;
29916;SDS011;16786;49.466;11.068;2023-03-14T02:02:15;1.08;;;0.57;;
29916;SDS011;16786;49.466;11.068;2023-03-14T02:04:43;0.77;;;0.52;;
29916;SDS011;16786;49.466;11.068;2023-03-14T02:07:18;2.90;;;0.50;;
29916;SDS011;16786;49.466;11.068;2023-03-14T02:10:19;0.90;;;0.60;;
29916;SDS011;16786;49.466;11.068;2023-03-14T02:12:49;1.15;;;0.52;;
29916;SDS011;16786;49.466;11.068;2023-03-14T02:15:39;0.90;;;0.60;;
29916;SDS011;16786;49.466;11.068;2023-03-14T02:18:30;1.27;;;0.80;;
29916;SDS011;16786;49.466;11.068;2023-03-14T02:27:03;2.05;;;0.90;;
29916;SDS011;16786;49.466;11.068;2023-03-14T02:29:30;1.38;;;0.60;;
29916;SDS011;16786;49.466;11.068;2023-03-14T02:32:01;3.15;;;0.60;;
29916;SDS011;16786;49.466;11.068;2023-03-14T02:34:29;0.52;;;0.50;;
29916;SDS011;16786;49.466;11.068;2023-03-14T02:36:58;1.30;;;0.60;;
29916;SDS011;16786;49.466;11.068;2023-03-14T02:39:30;1.33;;;0.63;;
29916;SDS011;16786;49.466;11.068;2023-03-14T02:42:13;1.65;;;0.60;;
29916;SDS011;16786;49.466;11.068;2023-03-14T02:47:52;1.55;;;0.68;;
29916;SDS011;16786;49.466;11.068;2023-03-14T02:50:29;2.35;;;0.55;;
29916;SDS011;16786;49.466;11.068;2023-03-14T02:53:00;0.57;;;0.57;;
29916;SDS011;16786;49.466;11.068;2023-03-14T02:55:28;0.93;;;0.50;;
29916;SDS011;16786;49.466;11.068;2023-03-14T02:57:58;1.45;;;0.70;;
29916;SDS011;16786;49.466;11.068;2023-03-14T03:00:27;1.27;;;0.60;;
29916;SDS011;16786;49.466;11.068;2023-03-14T03:02:54;1.17;;;0.68;;
29916;SDS011;16786;49.466;11.068;2023-03-14T03:05:21;3.10;;;0.70;;
29916;SDS011;16786;49.466;11.068;2023-03-14T03:07:48;1.35;;;0.57;;
29916;SDS011;16786;49.466;11.068;2023-03-14T03:10:16;1.70;;;0.80;;
29916;SDS011;16786;49.466;11.068;2023-03-14T03:12:44;1.75;;;0.90;;
29916;SDS011;16786;49.466;11.068;2023-03-14T03:15:11;1.55;;;0.98;;
29916;SDS011;16786;49.466;11.068;2023-03-14T03:17:39;1.95;;;0.88;;
29916;SDS011;16786;49.466;11.068;2023-03-14T03:20:06;1.98;;;0.90;;
29916;SDS011;16786;49.466;11.068;2023-03-14T03:22:37;2.72;;;0.90;;
29916;SDS011;16786;49.466;11.068;2023-03-14T03:25:06;1.17;;;0.70;;
29916;SDS011;16786;49.466;11.068;2023-03-14T03:27:37;1.88;;;0.80;;
29916;SDS011;16786;49.466;11.068;2023-03-14T03:30:05;1.33;;;0.70;;
29916;SDS011;16786;49.466;11.068;2023-03-14T03:32:34;2.80;;;0.80;;
29916;SDS011;16786;49.466;11.068;2023-03-14T03:35:03;2.20;;;0.70;;
29916;SDS011;16786;49.466;11.068;2023-03-14T03:37:33;2.22;;;0.90;;
29916;SDS011;16786;49.466;11.068;2023-03-14T03:40:03;1.65;;;0.80;;
29916;SDS011;16786;49.466;11.068;2023-03-14T03:42:34;2.08;;;0.80;;
29916;SDS011;16786;49.466;11.068;2023-03-14T03:45:02;0.98;;;0.68;;
29916;SDS011;16786;49.466;11.068;2023-03-14T03:47:33;1.60;;;0.90;;
29916;SDS011;16786;49.466;11.068;2023-03-14T03:50:01;2.45;;;0.90;;
29916;SDS011;16786;49.466;11.068;2023-03-14T03:52:29;1.60;;;0.80;;
29916;SDS011;16786;49.466;11.068;2023-03-14T03:54:56;1.38;;;0.90;;
29916;SDS011;16786;49.466;11.068;2023-03-14T03:57:23;2.50;;;0.98;;
29916;SDS011;16786;49.466;11.068;2023-03-14T03:59:50;2.05;;;1.00;;
29916;SDS011;16786;49.466;11.068;2023-03-14T04:02:18;1.45;;;0.85;;
29916;SDS011;16786;49.466;11.068;2023-03-14T04:04:45;1.95;;;0.90;;
29916;SDS011;16786;49.466;11.068;2023-03-14T04:07:12;1.75;;;0.90;;
29916;SDS011;16786;49.466;11.068;2023-03-14T04:09:42;2.78;;;1.10;;
29916;SDS011;16786;49.466;11.068;2023-03-14T04:12:21;1.90;;;0.90;;
29916;SDS011;16786;49.466;11.068;2023-03-14T04:14:58;2.15;;;1.00;;
29916;SDS011;16786;49.466;11.068;2023-03-14T04:17:26;2.63;;;1.00;;
29916;SDS011;16786;49.466;11.068;2023-03-14T04:19:53;2.25;;;0.98;;
29916;SDS011;16786;49.466;11.068;2023-03-14T04:22:28;2.28;;;1.00;;
29916;SDS011;16786;49.466;11.068;2023-03-14T04:24:56;1.83;;;0.90;;
29916;SDS011;16786;49.466;11.068;2023-03-14T04:27:24;2.85;;;0.90;;
29916;SDS011;16786;49.466;11.068;2023-03-14T04:29:52;2.45;;;0.90;;
29916;SDS011;16786;49.466;11.068;2023-03-14T04:32:32;4.15;;;1.23;;
29916;SDS011;16786;49.466;11.068;2023-03-14T04:34:59;1.95;;;0.80;;
29916;SDS011;16786;49.466;11.068;2023-03-14T04:37:26;3.75;;;1.05;;
29916;SDS011;16786;49.466;11.068;2023-03-14T04:39:54;2.63;;;1.02;;
29916;SDS011;16786;49.466;11.068;2023-03-14T04:42:26;2.13;;;1.00;;
29916;SDS011;16786;49.466;11.068;2023-03-14T04:44:54;2.17;;;1.00;;
29916;SDS011;16786;49.466;11.068;2023-03-14T04:47:24;2.50;;;1.20;;
29916;SDS011;16786;49.466;11.068;2023-03-14T04:49:52;2.42;;;1.10;;
29916;SDS011;16786;49.466;11.068;2023-03-14T04:52:22;2.47;;;1.15;;
29916;SDS011;16786;49.466;11.068;2023-03-14T04:54:50;3.55;;;1.80;;
29916;SDS011;16786;49.466;11.068;2023-03-14T04:57:19;3.85;;;1.20;;
29916;SDS011;16786;49.466;11.068;2023-03-14T04:59:47;1.70;;;0.93;;
29916;SDS011;16786;49.466;11.068;2023-03-14T05:02:28;3.15;;;1.15;;
29916;SDS011;16786;49.466;11.068;2023-03-14T05:05:13;1.30;;;0.82;;
29916;SDS011;16786;49.466;11.068;2023-03-14T05:08:03;1.35;;;0.90;;
29916;SDS011;16786;49.466;11.068;2023-03-14T05:10:54;2.63;;;1.20;;
29916;SDS011;16786;49.466;11.068;2023-03-14T05:13:41;2.92;;;1.30;;
29916;SDS011;16786;49.466;11.068;2023-03-14T05:16:32;2.28;;;1.00;;
29916;SDS011;16786;49.466;11.068;2023-03-14T05:19:32;2.05;;;1.08;;
29916;SDS011;16786;49.466;11.068;2023-03-14T05:22:20;2.42;;;1.10;;
29916;SDS011;16786;49.466;11.068;2023-03-14T05:24:47;2.67;;;1.20;;
29916;SDS011;16786;49.466;11.068;2023-03-14T05:27:35;5.35;;;1.15;;
29916;SDS011;16786;49.466;11.068;2023-03-14T05:30:30;2.05;;;0.90;;
29916;SDS011;16786;49.466;11.068;2023-03-14T05:33:17;1.48;;;0.82;;
29916;SDS011;16786;49.466;11.068;2023-03-14T05:36:03;1.83;;;1.17;;
29916;SDS011;16786;49.466;11.068;2023-03-14T05:38:52;2.47;;;1.10;;
29916;SDS011;16786;49.466;11.068;2023-03-14T05:41:38;2.75;;;1.20;;
29916;SDS011;16786;49.466;11.068;2023-03-14T05:44:28;1.85;;;1.10;;
29916;SDS011;16786;49.466;11.068;2023-03-14T05:47:04;3.17;;;1.20;;
29916;SDS011;16786;49.466;11.068;2023-03-14T05:49:50;2.30;;;1.00;;
29916;SDS011;16786;49.466;11.068;2023-03-14T05:52:17;1.90;;;0.90;;
29916;SDS011;16786;49.466;11.068;2023-03-14T05:54:59;1.83;;;1.15;;
29916;SDS011;16786;49.466;11.068;2023-03-14T05:57:49;2.22;;;1.00;;
29916;SDS011;16786;49.466;11.068;2023-03-14T06:00:23;3.55;;;1.20;;
29916;SDS011;16786;49.466;11.068;2023-03-14T06:03:01;3.05;;;1.17;;
29916;SDS011;16786;49.466;11.068;2023-03-14T06:05:32;2.45;;;1.15;;
29916;SDS011;16786;49.466;11.068;2023-03-14T06:08:00;2.95;;;1.50;;
29916;SDS011;16786;49.466;11.068;2023-03-14T06:10:30;3.70;;;1.35;;
29916;SDS011;16786;49.466;11.068;2023-03-14T06:12:57;4.97;;;1.67;;
29916;SDS011;16786;49.466;11.068;2023-03-14T06:15:24;2.97;;;1.33;;
29916;SDS011;16786;49.466;11.068;2023-03-14T06:17:54;2.53;;;1.45;;
29916;SDS011;16786;49.466;11.068;2023-03-14T06:20:23;4.45;;;1.63;;
29916;SDS011;16786;49.466;11.068;2023-03-14T06:22:50;4.07;;;1.38;;
29916;SDS011;16786;49.466;11.068;2023-03-14T06:25:18;3.70;;;1.33;;
29916;SDS011;16786;49.466;11.068;2023-03-14T06:27:47;4.68;;;1.45;;
29916;SDS011;16786;49.466;11.068;2023-03-14T06:30:15;3.10;;;1.52;;
29916;SDS011;16786;49.466;11.068;2023-03-14T06:32:43;3.47;;;1.27;;
29916;SDS011;16786;49.466;11.068;2023-03-14T06:35:13;7.55;;;1.85;;
29916;SDS011;16786;49.466;11.068;2023-03-14T06:37:42;7.18;;;2.00;;
29916;SDS011;16786;49.466;11.068;2023-03-14T06:40:10;3.65;;;1.30;;
29916;SDS011;16786;49.466;11.068;2023-03-14T06:42:56;6.13;;;3.55;;
29916;SDS011;16786;49.466;11.068;2023-03-14T06:45:26;3.20;;;1.30;;
29916;SDS011;16786;49.466;11.068;2023-03-14T06:47:55;3.22;;;1.50;;
29916;SDS011;16786;49.466;11.068;2023-03-14T06:50:28;5.35;;;1.70;;
29916;SDS011;16786;49.466;11.068;2023-03-14T06:52:57;3.25;;;1.52;;
29916;SDS011;16786;49.466;11.068;2023-03-14T06:55:25;6.03;;;2.00;;
29916;SDS011;16786;49.466;11.068;2023-03-14T06:57:53;4.50;;;1.63;;
29916;SDS011;16786;49.466;11.068;2023-03-14T07:00:20;2.92;;;1.58;;
29916;SDS011;16786;49.466;11.068;2023-03-14T07:02:52;3.28;;;1.55;;
29916;SDS011;16786;49.466;11.068;2023-03-14T07:05:39;4.40;;;1.85;;
29916;SDS011;16786;49.466;11.068;2023-03-14T07:08:07;6.20;;;1.75;;
29916;SDS011;16786;49.466;11.068;2023-03-14T07:10:35;3.88;;;1.52;;
29916;SDS011;16786;49.466;11.068;2023-03-14T07:13:05;1.98;;;1.05;;
29916;SDS011;16786;49.466;11.068;2023-03-14T07:15:36;6.15;;;1.35;;
29916;SDS011;16786;49.466;11.068;2023-03-14T07:18:07;2.93;;;1.40;;
29916;SDS011;16786;49.466;11.068;2023-03-14T07:20:35;3.03;;;1.45;;
29916;SDS011;16786;49.466;11.068;2023-03-14T07:23:03;14.35;;;7.35;;
29916;SDS011;16786;49.466;11.068;2023-03-14T07:25:38;1.90;;;1.13;;
29916;SDS011;16786;49.466;11.068;2023-03-14T07:28:06;2.17;;;1.38;;
29916;SDS011;16786;49.466;11.068;2023-03-14T07:30:34;4.95;;;1.40;;
29916;SDS011;16786;49.466;11.068;2023-03-14T07:33:11;3.40;;;1.85;;
29916;SDS011;16786;49.466;11.068;2023-03-14T07:35:38;4.57;;;1.88;;
29916;SDS011;16786;49.466;11.068;2023-03-14T07:38:06;2.92;;;1.30;;
29916;SDS011;16786;49.466;11.068;2023-03-14T07:40:38;4.15;;;1.55;;
29916;SDS011;16786;49.466;11.068;2023-03-14T07:43:06;4.15;;;1.75;;
29916;SDS011;16786;49.466;11.068;2023-03-14T07:45:47;5.38;;;1.73;;
29916;SDS011;16786;49.466;11.068;2023-03-14T07:48:17;2.75;;;1.38;;
29916;SDS011;16786;49.466;11.068;2023-03-14T07:50:48;3.17;;;1.52;;
29916;SDS011;16786;49.466;11.068;2023-03-14T07:53:18;6.25;;;1.80;;
29916;SDS011;16786;49.466;11.068;2023-03-14T07:55:45;3.33;;;1.50;;
29916;SDS011;16786;49.466;11.068;2023-03-14T07:58:14;4.95;;;1.80;;
29916;SDS011;16786;49.466;11.068;2023-03-14T08:00:41;7.00;;;1.92;;
29916;SDS011;16786;49.466;11.068;2023-03-14T08:03:09;5.85;;;2.00;;
29916;SDS011;16786;49.466;11.068;2023-03-14T08:05:37;5.60;;;2.00;;
29916;SDS011;16786;49.466;11.068;2023-03-14T08:08:04;4.53;;;1.73;;
29916;SDS011;16786;49.466;11.068;2023-03-14T08:10:32;4.78;;;2.10;;
29916;SDS011;16786;49.466;11.068;2023-03-14T08:13:00;5.20;;;2.10;;
29916;SDS011;16786;49.466;11.068;2023-03-14T08:15:28;6.88;;;2.30;;
29916;SDS011;16786;49.466;11.068;2023-03-14T08:17:56;6.97;;;2.75;;
29916;SDS011;16786;49.466;11.068;2023-03-14T08:20:25;7.25;;;2.35;;
29916;SDS011;16786;49.466;11.068;2023-03-14T08:22:58;6.57;;;3.83;;
29916;SDS011;16786;49.466;11.068;2023-03-14T08:25:27;7.60;;;1.90;;
29916;SDS011;16786;49.466;11.068;2023-03-14T08:27:55;4.38;;;1.98;;
29916;SDS011;16786;49.466;11.068;2023-03-14T08:30:23;4.22;;;1.75;;
29916;SDS011;16786;49.466;11.068;2023-03-14T08:32:51;4.60;;;1.70;;
29916;SDS011;16786;49.466;11.068;2023-03-14T08:35:19;3.50;;;1.60;;
29916;SDS011;16786;49.466;11.068;2023-03-14T08:37:46;3.75;;;1.50;;
29916;SDS011;16786;49.466;11.068;2023-03-14T08:40:14;4.35;;;1.63;;
29916;SDS011;16786;49.466;11.068;2023-03-14T08:42:42;4.22;;;1.60;;
29916;SDS011;16786;49.466;11.068;2023-03-14T08:45:11;4.90;;;1.50;;
29916;SDS011;16786;49.466;11.068;2023-03-14T08:47:39;4.40;;;1.52;;
29916;SDS011;16786;49.466;11.068;2023-03-14T08:50:07;3.25;;;1.42;;
29916;SDS011;16786;49.466;11.068;2023-03-14T08:52:36;5.22;;;1.48;;
29916;SDS011;16786;49.466;11.068;2023-03-14T08:55:10;6.55;;;1.70;;
29916;SDS011;16786;49.466;11.068;2023-03-14T08:57:37;3.78;;;1.65;;
29916;SDS011;16786;49.466;11.068;2023-03-14T09:00:04;4.40;;;1.73;;
29916;SDS011;16786;49.466;11.068;2023-03-14T09:02:37;3.15;;;1.25;;
29916;SDS011;16786;49.466;11.068;2023-03-14T09:05:05;3.42;;;1.35;;
29916;SDS011;16786;49.466;11.068;2023-03-14T09:07:32;5.47;;;1.63;;
29916;SDS011;16786;49.466;11.068;2023-03-14T09:10:00;2.97;;;1.35;;
29916;SDS011;16786;49.466;11.068;2023-03-14T09:12:28;2.20;;;1.25;;
29916;SDS011;16786;49.466;11.068;2023-03-14T09:14:55;2.65;;;1.40;;
29916;SDS011;16786;49.466;11.068;2023-03-14T09:17:23;3.75;;;1.63;;
29916;SDS011;16786;49.466;11.068;2023-03-14T09:19:50;5.30;;;1.85;;
29916;SDS011;16786;49.466;11.068;2023-03-14T09:22:17;3.25;;;1.50;;
29916;SDS011;16786;49.466;11.068;2023-03-14T09:24:45;4.13;;;1.40;;
29916;SDS011;16786;49.466;11.068;2023-03-14T09:27:12;4.50;;;1.55;;
29916;SDS011;16786;49.466;11.068;2023-03-14T09:29:39;3.95;;;1.73;;
29916;SDS011;16786;49.466;11.068;2023-03-14T09:32:07;4.45;;;1.35;;
29916;SDS011;16786;49.466;11.068;2023-03-14T09:34:34;5.63;;;1.63;;
29916;SDS011;16786;49.466;11.068;2023-03-14T09:37:02;2.45;;;1.50;;
29916;SDS011;16786;49.466;11.068;2023-03-14T09:39:29;3.00;;;1.80;;
29916;SDS011;16786;49.466;11.068;2023-03-14T09:41:57;3.25;;;1.48;;
29916;SDS011;16786;49.466;11.068;2023-03-14T09:44:29;3.75;;;1.40;;
29916;SDS011;16786;49.466;11.068;2023-03-14T09:47:03;2.15;;;1.27;;
29916;SDS011;16786;49.466;11.068;2023-03-14T09:49:34;4.10;;;1.80;;
29916;SDS011;16786;49.466;11.068;2023-03-14T09:59:42;4.85;;;1.58;;
29916;SDS011;16786;49.466;11.068;2023-03-14T10:02:16;4.22;;;1.90;;
29916;SDS011;16786;49.466;11.068;2023-03-14T10:04:47;6.97;;;1.80;;
29916;SDS011;16786;49.466;11.068;2023-03-14T10:07:18;2.70;;;1.50;;
29916;SDS011;16786;49.466;11.068;2023-03-14T10:09:50;5.07;;;1.50;;
29916;SDS011;16786;49.466;11.068;2023-03-14T10:12:18;3.75;;;1.40;;
29916;SDS011;16786;49.466;11.068;2023-03-14T10:14:50;2.35;;;1.38;;
29916;SDS011;16786;49.466;11.068;2023-03-14T10:17:20;3.85;;;1.60;;
29916;SDS011;16786;49.466;11.068;2023-03-14T10:19:51;4.97;;;1.80;;
29916;SDS011;16786;49.466;11.068;2023-03-14T10:22:19;4.35;;;1.60;;
29916;SDS011;16786;49.466;11.068;2023-03-14T10:24:51;3.63;;;1.73;;
29916;SDS011;16786;49.466;11.068;2023-03-14T10:27:21;3.43;;;1.60;;
29916;SDS011;16786;49.466;11.068;2023-03-14T10:30:14;2.65;;;1.65;;
29916;SDS011;16786;49.466;11.068;2023-03-14T10:33:15;3.33;;;1.52;;
29916;SDS011;16786;49.466;11.068;2023-03-14T10:35:57;3.22;;;1.55;;
29916;SDS011;16786;49.466;11.068;2023-03-14T10:38:28;4.65;;;1.83;;
29916;SDS011;16786;49.466;11.068;2023-03-14T10:41:01;5.28;;;1.50;;
29916;SDS011;16786;49.466;11.068;2023-03-14T10:43:41;2.25;;;1.35;;
29916;SDS011;16786;49.466;11.068;2023-03-14T10:46:09;3.00;;;1.40;;
29916;SDS011;16786;49.466;11.068;2023-03-14T10:49:04;3.45;;;1.38;;
29916;SDS011;16786;49.466;11.068;2023-03-14T10:51:32;1.90;;;1.25;;
29916;SDS011;16786;49.466;11.068;2023-03-14T10:54:14;3.90;;;1.20;;
29916;SDS011;16786;49.466;11.068;2023-03-14T10:56:58;2.13;;;1.30;;
29916;SDS011;16786;49.466;11.068;2023-03-14T10:59:34;3.67;;;1.33;;
29916;SDS011;16786;49.466;11.068;2023-03-14T11:07:41;3.00;;;1.30;;
29916;SDS011;16786;49.466;11.068;2023-03-14T11:10:20;2.10;;;1.33;;
29916;SDS011;16786;49.466;11.068;2023-03-14T11:15:38;2.13;;;1.10;;
29916;SDS011;16786;49.466;11.068;2023-03-14T11:21:23;4.18;;;1.75;;
29916;SDS011;16786;49.466;11.068;2023-03-14T11:27:03;1.50;;;1.20;;
29916;SDS011;16786;49.466;11.068;2023-03-14T11:29:40;1.58;;;1.20;;
29916;SDS011;16786;49.466;11.068;2023-03-14T11:32:19;3.92;;;1.67;;
29916;SDS011;16786;49.466;11.068;2023-03-14T11:35:04;4.65;;;1.30;;
29916;SDS011;16786;49.466;11.068;2023-03-14T11:37:53;2.47;;;1.20;;
29916;SDS011;16786;49.466;11.068;2023-03-14T11:40:25;1.98;;;1.30;;
29916;SDS011;16786;49.466;11.068;2023-03-14T11:42:56;2.42;;;1.30;;
29916;SDS011;16786;49.466;11.068;2023-03-14T11:45:46;2.08;;;1.20;;
29916;SDS011;16786;49.466;11.068;2023-03-14T11:50:59;2.72;;;1.25;;
29916;SDS011;16786;49.466;11.068;2023-03-14T11:56:32;5.55;;;1.45;;
29916;SDS011;16786;49.466;11.068;2023-03-14T11:59:02;2.63;;;1.35;;
29916;SDS011;16786;49.466;11.068;2023-03-14T12:07:06;1.85;;;1.25;;
29916;SDS011;16786;49.466;11.068;2023-03-14T12:09:45;1.95;;;1.40;;
29916;SDS011;16786;49.466;11.068;2023-03-14T12:12:24;2.83;;;1.23;;
29916;SDS011;16786;49.466;11.068;2023-03-14T12:14:57;1.92;;;1.33;;
29916;SDS011;16786;49.466;11.068;2023-03-14T12:20:17;5.88;;;1.35;;
29916;SDS011;16786;49.466;11.068;2023-03-14T12:22:48;3.20;;;1.35;;
29916;SDS011;16786;49.466;11.068;2023-03-14T12:25:29;2.58;;;1.58;;
29916;SDS011;16786;49.466;11.068;2023-03-14T12:28:16;2.33;;;1.50;;
29916;SDS011;16786;49.466;11.068;2023-03-14T12:30:47;1.40;;;1.30;;
29916;SDS011;16786;49.466;11.068;2023-03-14T12:35:49;1.60;;;1.50;;
29916;SDS011;16786;49.466;11.068;2023-03-14T12:38:46;1.40;;;1.30;;
29916;SDS011;16786;49.466;11.068;2023-03-14T12:43:52;2.65;;;1.50;;
29916;SDS011;16786;49.466;11.068;2023-03-14T12:48:55;1.70;;;1.55;;
29916;SDS011;16786;49.466;11.068;2023-03-14T12:51:36;1.65;;;1.42;;
29916;SDS011;16786;49.466;11.068;2023-03-14T13:01:53;2.60;;;1.45;;
29916;SDS011;16786;49.466;11.068;2023-03-14T13:12:47;2.35;;;1.10;;
29916;SDS011;16786;49.466;11.068;2023-03-14T13:15:19;1.20;;;1.10;;
29916;SDS011;16786;49.466;11.068;2023-03-14T13:18:08;1.00;;;1.00;;
29916;SDS011;16786;49.466;11.068;2023-03-14T13:20:44;1.20;;;1.08;;
29916;SDS011;16786;49.466;11.068;2023-03-14T13:23:23;0.90;;;0.90;;
29916;SDS011;16786;49.466;11.068;2023-03-14T13:25:55;0.90;;;0.90;;
29916;SDS011;16786;49.466;11.068;2023-03-14T13:28:23;1.00;;;0.90;;
29916;SDS011;16786;49.466;11.068;2023-03-14T13:30:54;2.08;;;0.93;;
29916;SDS011;16786;49.466;11.068;2023-03-14T13:33:24;2.25;;;1.20;;
29916;SDS011;16786;49.466;11.068;2023-03-14T13:35:56;1.52;;;1.00;;
29916;SDS011;16786;49.466;11.068;2023-03-14T13:38:34;1.10;;;0.90;;
29916;SDS011;16786;49.466;11.068;2023-03-14T13:41:06;0.80;;;0.80;;
29916;SDS011;16786;49.466;11.068;2023-03-14T13:43:41;1.15;;;0.85;;
29916;SDS011;16786;49.466;11.068;2023-03-14T13:46:19;3.38;;;1.17;;
29916;SDS011;16786;49.466;11.068;2023-03-14T13:48:49;1.58;;;0.80;;
29916;SDS011;16786;49.466;11.068;2023-03-14T13:51:22;2.03;;;1.00;;
29916;SDS011;16786;49.466;11.068;2023-03-14T13:53:52;1.38;;;0.90;;
29916;SDS011;16786;49.466;11.068;2023-03-14T13:56:22;2.22;;;1.00;;
29916;SDS011;16786;49.466;11.068;2023-03-14T13:58:52;1.70;;;1.13;;
29916;SDS011;16786;49.466;11.068;2023-03-14T14:01:23;3.83;;;1.05;;
29916;SDS011;16786;49.466;11.068;2023-03-14T14:03:55;1.90;;;1.10;;
29916;SDS011;16786;49.466;11.068;2023-03-14T14:09:12;2.83;;;1.00;;
29916;SDS011;16786;49.466;11.068;2023-03-14T14:11:54;5.65;;;1.65;;
29916;SDS011;16786;49.466;11.068;2023-03-14T14:14:49;2.95;;;1.20;;
29916;SDS011;16786;49.466;11.068;2023-03-14T14:17:32;1.00;;;0.80;;
29916;SDS011;16786;49.466;11.068;2023-03-14T14:20:10;1.00;;;0.80;;
29916;SDS011;16786;49.466;11.068;2023-03-14T14:22:48;1.85;;;1.00;;
29916;SDS011;16786;49.466;11.068;2023-03-14T14:25:16;1.77;;;1.08;;
29916;SDS011;16786;49.466;11.068;2023-03-14T14:27:46;1.40;;;1.00;;
29916;SDS011;16786;49.466;11.068;2023-03-14T14:32:44;1.40;;;1.02;;
29916;SDS011;16786;49.466;11.068;2023-03-14T14:35:23;2.25;;;1.20;;
29916;SDS011;16786;49.466;11.068;2023-03-14T14:37:59;2.38;;;1.08;;
29916;SDS011;16786;49.466;11.068;2023-03-14T14:40:28;1.38;;;1.05;;
29916;SDS011;16786;49.466;11.068;2023-03-14T14:43:03;1.85;;;0.95;;
29916;SDS011;16786;49.466;11.068;2023-03-14T14:45:33;2.42;;;1.00;;
29916;SDS011;16786;49.466;11.068;2023-03-14T14:50:32;1.58;;;1.13;;
29916;SDS011;16786;49.466;11.068;2023-03-14T14:53:25;4.75;;;1.30;;
29916;SDS011;16786;49.466;11.068;2023-03-14T14:58:46;1.33;;;1.20;;
29916;SDS011;16786;49.466;11.068;2023-03-14T15:01:14;1.95;;;1.42;;
29916;SDS011;16786;49.466;11.068;2023-03-14T15:03:44;2.67;;;1.25;;
29916;SDS011;16786;49.466;11.068;2023-03-14T15:06:14;1.38;;;1.25;;
29916;SDS011;16786;49.466;11.068;2023-03-14T15:08:43;2.08;;;1.48;;
29916;SDS011;16786;49.466;11.068;2023-03-14T15:11:19;2.60;;;1.70;;
29916;SDS011;16786;49.466;11.068;2023-03-14T15:13:49;3.13;;;1.80;;
29916;SDS011;16786;49.466;11.068;2023-03-14T15:16:19;3.00;;;1.73;;
29916;SDS011;16786;49.466;11.068;2023-03-14T15:18:58;2.45;;;1.75;;
29916;SDS011;16786;49.466;11.068;2023-03-14T15:21:40;3.08;;;2.15;;
29916;SDS011;16786;49.466;11.068;2023-03-14T15:24:08;2.97;;;2.10;;
29916;SDS011;16786;49.466;11.068;2023-03-14T15:26:36;2.78;;;2.08;;
29916;SDS011;16786;49.466;11.068;2023-03-14T15:29:03;3.35;;;2.28;;
29916;SDS011;16786;49.466;11.068;2023-03-14T15:31:34;4.07;;;2.50;;
29916;SDS011;16786;49.466;11.068;2023-03-14T15:34:02;4.00;;;2.63;;
29916;SDS011;16786;49.466;11.068;2023-03-14T15:36:33;4.85;;;2.58;;
29916;SDS011;16786;49.466;11.068;2023-03-14T15:39:03;4.38;;;3.15;;
29916;SDS011;16786;49.466;11.068;2023-03-14T15:41:32;4.50;;;2.47;;
29916;SDS011;16786;49.466;11.068;2023-03-14T15:44:00;4.68;;;2.60;;
29916;SDS011;16786;49.466;11.068;2023-03-14T15:46:27;4.00;;;2.33;;
29916;SDS011;16786;49.466;11.068;2023-03-14T15:48:56;6.55;;;2.90;;
29916;SDS011;16786;49.466;11.068;2023-03-14T15:51:24;4.47;;;2.53;;
29916;SDS011;16786;49.466;11.068;2023-03-14T15:53:51;5.20;;;2.55;;
29916;SDS011;16786;49.466;11.068;2023-03-14T15:56:19;4.53;;;2.95;;
29916;SDS011;16786;49.466;11.068;2023-03-14T15:58:47;5.30;;;3.10;;
29916;SDS011;16786;49.466;11.068;2023-03-14T16:01:15;7.82;;;2.45;;
29916;SDS011;16786;49.466;11.068;2023-03-14T16:03:43;6.70;;;2.65;;
29916;SDS011;16786;49.466;11.068;2023-03-14T16:06:12;4.97;;;2.53;;
29916;SDS011;16786;49.466;11.068;2023-03-14T16:08:40;4.05;;;2.47;;
29916;SDS011;16786;49.466;11.068;2023-03-14T16:11:09;5.82;;;1.90;;
29916;SDS011;16786;49.466;11.068;2023-03-14T16:13:38;4.45;;;1.83;;
29916;SDS011;16786;49.466;11.068;2023-03-14T16:16:06;3.33;;;1.60;;
29916;SDS011;16786;49.466;11.068;2023-03-14T16:18:35;3.17;;;1.90;;
29916;SDS011;16786;49.466;11.068;2023-03-14T16:21:05;3.92;;;1.80;;
29916;SDS011;16786;49.466;11.068;2023-03-14T16:23:34;5.70;;;1.70;;
29916;SDS011;16786;49.466;11.068;2023-03-14T16:26:05;3.92;;;1.85;;
29916;SDS011;16786;49.466;11.068;2023-03-14T16:28:34;3.80;;;1.60;;
29916;SDS011;16786;49.466;11.068;2023-03-14T16:31:05;5.13;;;1.67;;
29916;SDS011;16786;49.466;11.068;2023-03-14T16:33:35;3.25;;;1.70;;